createdAt,value
2023-01-15T00:13:46.504Z,125.52248
2023-01-15T00:28:48.729Z,40.57292
2023-01-15T00:43:50.979Z,3.80371
2023-01-15T00:58:53.267Z,0
2023-01-15T01:13:55.532Z,0
2023-01-15T01:28:57.947Z,0
2023-01-15T01:44:00.168Z,0
2023-01-15T01:59:02.445Z,0
2023-01-15T02:14:04.688Z,0
2023-01-15T02:29:06.962Z,0
2023-01-15T02:44:09.218Z,0
2023-01-15T02:59:11.611Z,0
2023-01-15T03:14:14.163Z,0
2023-01-15T03:29:16.540Z,0
2023-01-15T03:44:18.821Z,0
2023-01-15T03:59:21.253Z,0
2023-01-15T04:14:23.593Z,0
2023-01-15T04:29:25.833Z,0
2023-01-15T04:44:28.089Z,0
2023-01-15T04:59:30.412Z,0
2023-01-15T05:14:32.702Z,0
2023-01-15T05:29:35.523Z,0
2023-01-15T05:44:37.806Z,0
2023-01-15T05:59:40.009Z,0
2023-01-15T06:14:42.264Z,0
2023-01-15T06:29:44.500Z,0
2023-01-15T06:44:46.820Z,0
2023-01-15T06:59:49.199Z,0
2023-01-15T07:14:51.550Z,0
2023-01-15T07:29:53.772Z,0
2023-01-15T07:44:55.963Z,0
2023-01-15T07:59:58.204Z,0
2023-01-15T08:15:00.714Z,0
2023-01-15T08:30:02.900Z,0
2023-01-15T08:45:05.207Z,0
2023-01-15T09:00:07.484Z,0
2023-01-15T09:15:09.699Z,0
2023-01-15T09:30:11.979Z,0
2023-01-15T09:45:14.212Z,0
2023-01-15T10:00:16.505Z,0
2023-01-15T10:15:18.680Z,0
2023-01-15T10:30:20.983Z,0
2023-01-15T10:45:23.209Z,0
2023-01-15T11:00:25.555Z,0
2023-01-15T11:15:27.909Z,0
2023-01-15T11:30:30.191Z,0
2023-01-15T11:45:32.536Z,0
2023-01-15T12:00:34.796Z,0
2023-01-15T12:15:37.392Z,0
2023-01-15T12:30:39.624Z,0
2023-01-15T12:45:41.877Z,0
2023-01-15T13:00:44.204Z,0
2023-01-15T13:15:46.550Z,0
2023-01-15T13:30:48.925Z,0
2023-01-15T13:45:51.382Z,0
2023-01-15T14:00:53.797Z,0
2023-01-15T14:15:56.103Z,0
2023-01-15T14:30:58.359Z,0
2023-01-15T14:46:00.734Z,0
2023-01-15T15:01:03.175Z,0
2023-01-15T15:16:05.554Z,2.53581
2023-01-15T15:31:07.988Z,17.75065
2023-01-15T15:46:10.505Z,67.1989
2023-01-15T16:01:12.957Z,112.84344
2023-01-15T16:16:15.453Z,98.8965
2023-01-15T16:31:17.991Z,178.77443
2023-01-15T16:46:20.806Z,374.03162
2023-01-15T17:01:23.261Z,767.08179
2023-01-15T17:16:25.651Z,647.89886
2023-01-15T17:31:27.959Z,845.69183
2023-01-15T17:46:30.304Z,1117.02319
2023-01-15T18:01:32.789Z,1553.18213
2023-01-15T18:16:35.174Z,1691.38367
2023-01-15T18:31:37.652Z,1412.44482
2023-01-15T18:46:40.189Z,1631.79224
2023-01-15T19:01:42.644Z,2412.82104
2023-01-15T19:16:45.117Z,2471.14453
2023-01-15T19:31:47.548Z,2409.01733
2023-01-15T19:46:50.139Z,2717.11792
2023-01-15T20:01:52.625Z,2211.22412
2023-01-15T20:16:55.035Z,3247.10156
2023-01-15T20:31:57.551Z,2298.70972
2023-01-15T20:47:00.167Z,1657.15027
2023-01-15T21:02:02.548Z,1091.66516
2023-01-15T21:17:04.919Z,1365.53235
2023-01-15T21:32:07.249Z,2748.81543
2023-01-15T21:47:09.581Z,3084.81006
2023-01-15T22:02:12.073Z,1641.93542
2023-01-15T22:17:14.625Z,1234.93835
2023-01-15T22:32:17.079Z,2218.83154
2023-01-15T22:47:19.506Z,1966.5188
2023-01-15T23:02:21.896Z,1103.07629
2023-01-15T23:17:24.291Z,1196.90125
2023-01-15T23:32:26.602Z,1156.32825
2023-01-15T23:47:28.900Z,961.07111
